createdAt,value
2023-04-05T00:00:38.619Z,12.40
2023-04-05T00:01:38.718Z,13.50
2023-04-05T00:02:39.057Z,14.70
2023-04-05T00:03:39.355Z,13.80
2023-04-05T00:04:39.725Z,15.80
2023-04-05T00:05:39.897Z,11.20
2023-04-05T00:06:40.171Z,9.10
2023-04-05T00:07:40.521Z,8.90
2023-04-05T00:08:40.771Z,10.30
2023-04-05T00:09:41.042Z,9.00
2023-04-05T00:10:41.576Z,8.10
2023-04-05T00:11:41.646Z,8.70
2023-04-05T00:12:42.029Z,7.60
2023-04-05T00:13:42.422Z,8.80
2023-04-05T00:14:42.671Z,7.70
2023-04-05T00:15:42.962Z,7.10
2023-04-05T00:16:43.273Z,7.50
2023-04-05T00:17:43.532Z,10.00
2023-04-05T00:18:43.751Z,10.60
2023-04-05T00:19:44.118Z,11.60
2023-04-05T00:20:44.391Z,9.40
2023-04-05T00:21:44.687Z,9.60
2023-04-05T00:22:45.041Z,8.80
2023-04-05T00:23:45.270Z,8.00
2023-04-05T00:24:45.506Z,10.60
2023-04-05T00:25:45.908Z,7.50
2023-04-05T00:26:46.184Z,11.30
2023-04-05T00:27:46.431Z,8.80
2023-04-05T00:28:46.677Z,8.90
2023-04-05T00:29:46.960Z,13.20
2023-04-05T00:30:47.261Z,10.90
2023-04-05T00:31:47.556Z,10.60
2023-04-05T00:32:47.810Z,8.80
2023-04-05T00:33:48.048Z,7.40
2023-04-05T00:34:48.307Z,9.20
2023-04-05T00:35:48.654Z,10.90
2023-04-05T00:36:48.878Z,8.40
2023-04-05T00:37:49.232Z,8.30
2023-04-05T00:38:49.493Z,9.50
2023-04-05T00:39:49.854Z,10.20
2023-04-05T00:40:50.155Z,11.00
2023-04-05T00:41:50.396Z,10.90
2023-04-05T00:42:50.650Z,8.70
2023-04-05T00:43:51.045Z,9.20
2023-04-05T00:44:51.261Z,12.00
2023-04-05T00:45:51.668Z,7.50
2023-04-05T00:46:51.912Z,8.80
2023-04-05T00:47:52.223Z,9.00
2023-04-05T00:48:52.433Z,10.20
2023-04-05T00:49:52.789Z,9.90
2023-04-05T00:50:53.156Z,10.50
2023-04-05T00:51:53.421Z,10.00
2023-04-05T00:52:53.679Z,9.70
2023-04-05T00:53:53.970Z,8.50
2023-04-05T00:54:54.200Z,8.80
2023-04-05T00:55:54.618Z,9.70
2023-04-05T00:56:54.840Z,8.60
2023-04-05T00:57:55.219Z,9.70
2023-04-05T00:58:55.541Z,9.90
2023-04-05T00:59:55.801Z,11.00
2023-04-05T01:00:56.072Z,11.10
2023-04-05T01:01:56.318Z,7.30
2023-04-05T01:02:56.749Z,8.50
2023-04-05T01:03:56.969Z,9.10
2023-04-05T01:04:57.229Z,8.10
2023-04-05T01:05:57.606Z,9.40
2023-04-05T01:06:57.852Z,8.20
2023-04-05T01:07:58.222Z,11.60
2023-04-05T01:08:58.484Z,11.40
2023-04-05T01:09:58.863Z,9.80
2023-04-05T01:10:59.126Z,9.10
2023-04-05T01:11:59.495Z,14.00
2023-04-05T01:12:59.749Z,8.70
2023-04-05T01:14:00.121Z,8.60
2023-04-05T01:15:00.393Z,8.50
2023-04-05T01:16:00.761Z,7.40
2023-04-05T01:17:01.016Z,9.40
2023-04-05T01:18:01.323Z,9.20
2023-04-05T01:19:01.526Z,10.10
2023-04-05T01:20:01.917Z,9.70
2023-04-05T01:21:02.174Z,8.00
2023-04-05T01:22:02.436Z,10.30
2023-04-05T01:23:02.691Z,9.60
2023-04-05T01:24:03.065Z,10.30
2023-04-05T01:25:03.325Z,7.40
2023-04-05T01:26:03.721Z,10.40
2023-04-05T01:27:03.975Z,6.80
2023-04-05T01:28:04.369Z,8.10
2023-04-05T01:29:04.621Z,8.90
2023-04-05T01:30:04.997Z,11.50
2023-04-05T01:31:05.290Z,8.60
2023-04-05T01:32:05.642Z,9.50
2023-04-05T01:33:05.966Z,10.60
2023-04-05T01:34:06.210Z,9.50
2023-04-05T01:35:06.473Z,7.30
2023-04-05T01:36:06.862Z,9.60
2023-04-05T01:37:07.103Z,9.80
2023-04-05T01:38:07.384Z,12.80
2023-04-05T01:39:07.645Z,7.40
2023-04-05T01:40:07.915Z,7.30
2023-04-05T01:41:08.156Z,9.00
2023-04-05T01:42:08.562Z,9.90
2023-04-05T01:43:08.803Z,8.50
2023-04-05T01:44:09.096Z,14.60
2023-04-05T01:45:09.354Z,6.80
2023-04-05T01:46:09.767Z,8.00
2023-04-05T01:47:10.059Z,8.20
2023-04-05T01:48:10.329Z,7.30
2023-04-05T01:49:10.594Z,6.60
2023-04-05T01:50:10.887Z,7.70
2023-04-05T01:51:11.154Z,7.40
2023-04-05T01:52:11.418Z,5.40
2023-04-05T01:53:11.678Z,8.10
2023-04-05T01:54:12.059Z,9.00
2023-04-05T01:55:12.336Z,8.30
2023-04-05T01:56:12.712Z,6.70
2023-04-05T01:57:12.959Z,7.50
2023-04-05T01:58:13.343Z,8.90
2023-04-05T01:59:13.644Z,6.20
2023-04-05T02:00:13.932Z,8.80
2023-04-05T02:01:14.310Z,8.70
2023-04-05T02:02:14.562Z,5.10
2023-04-05T02:03:14.882Z,8.80
2023-04-05T02:04:15.123Z,9.10
2023-04-05T02:05:15.391Z,7.50
2023-04-05T02:06:15.678Z,6.30
2023-04-05T02:07:15.932Z,8.60
2023-04-05T02:08:16.323Z,5.80
2023-04-05T02:09:16.548Z,8.00
2023-04-05T02:10:16.924Z,6.10
2023-04-05T02:11:17.187Z,5.80
2023-04-05T02:12:17.448Z,6.30
2023-04-05T02:13:17.698Z,9.00
2023-04-05T02:14:18.069Z,9.10
2023-04-05T02:15:18.316Z,8.10
2023-04-05T02:16:18.769Z,7.50
2023-04-05T02:17:18.986Z,8.90
2023-04-05T02:18:19.267Z,7.30
2023-04-05T02:19:19.506Z,8.50
2023-04-05T02:20:19.791Z,6.90
2023-04-05T02:21:20.080Z,8.40
2023-04-05T02:22:20.350Z,9.10
2023-04-05T02:23:20.616Z,8.70
2023-04-05T02:24:20.991Z,7.40
2023-04-05T02:25:21.251Z,9.00
2023-04-05T02:26:21.547Z,9.60
2023-04-05T02:27:21.780Z,8.60
2023-04-05T02:28:22.178Z,7.30
2023-04-05T02:29:22.434Z,8.80
2023-04-05T02:30:22.815Z,9.00
2023-04-05T02:31:23.100Z,12.60
2023-04-05T02:32:23.338Z,7.20
2023-04-05T02:33:23.577Z,11.00
2023-04-05T02:34:23.932Z,8.30
2023-04-05T02:35:24.223Z,9.70
2023-04-05T02:36:24.450Z,8.10
2023-04-05T02:37:24.706Z,8.80
2023-04-05T02:38:24.967Z,8.50
2023-04-05T02:39:25.329Z,10.10
2023-04-05T02:40:25.593Z,10.60
2023-04-05T02:41:25.968Z,9.00
2023-04-05T02:42:26.214Z,13.00
2023-04-05T02:43:26.471Z,11.80
2023-04-05T02:44:26.772Z,7.50
2023-04-05T02:45:27.002Z,9.90
2023-04-05T02:46:27.261Z,10.50
2023-04-05T02:47:27.651Z,11.80
2023-04-05T02:48:27.864Z,10.10
2023-04-05T02:49:28.226Z,10.90
2023-04-05T02:50:28.578Z,10.20
2023-04-05T02:51:28.958Z,13.20
2023-04-05T02:52:29.202Z,9.70
2023-04-05T02:53:29.593Z,11.30
2023-04-05T02:54:29.833Z,11.50
2023-04-05T02:55:30.194Z,11.40
2023-04-05T02:56:30.561Z,8.80
2023-04-05T02:57:30.853Z,9.60
2023-04-05T02:58:31.079Z,9.60
2023-04-05T02:59:31.474Z,14.50
2023-04-05T03:00:31.687Z,11.10
2023-04-05T03:01:32.150Z,11.00
2023-04-05T03:02:32.387Z,11.50
2023-04-05T03:03:32.660Z,11.40
2023-04-05T03:04:32.887Z,12.80
2023-04-05T03:05:33.253Z,12.80
2023-04-05T03:06:33.518Z,11.80
2023-04-05T03:07:33.760Z,9.90
2023-04-05T03:08:34.010Z,9.90
2023-04-05T03:09:34.383Z,10.60
2023-04-05T03:10:34.628Z,10.00
2023-04-05T03:11:34.891Z,12.00
2023-04-05T03:12:35.142Z,10.80
2023-04-05T03:13:35.500Z,10.40
2023-04-05T03:14:35.753Z,9.70
2023-04-05T03:15:36.017Z,11.90
2023-04-05T03:16:37.412Z,11.90
2023-04-05T03:17:36.626Z,13.40
2023-04-05T03:18:36.828Z,13.10
2023-04-05T03:19:37.166Z,13.40
2023-04-05T03:20:37.398Z,11.50
2023-04-05T03:21:37.779Z,10.70
2023-04-05T03:22:38.014Z,10.70
2023-04-05T03:23:38.373Z,13.70
2023-04-05T03:24:38.609Z,13.80
2023-04-05T03:25:39.289Z,11.50
2023-04-05T03:26:39.274Z,12.10
2023-04-05T03:27:39.508Z,15.90
2023-04-05T03:28:39.745Z,11.60
2023-04-05T03:29:40.115Z,10.80
2023-04-05T03:30:40.387Z,11.30
2023-04-05T03:31:40.726Z,12.20
2023-04-05T03:32:40.977Z,13.80
2023-04-05T03:33:41.265Z,14.50
2023-04-05T03:34:41.550Z,13.70
2023-04-05T03:35:42.061Z,13.90
2023-04-05T03:36:42.306Z,14.20
2023-04-05T03:37:42.359Z,13.40
2023-04-05T03:38:42.725Z,14.40
2023-04-05T03:39:42.899Z,12.90
2023-04-05T03:40:43.149Z,11.10
2023-04-05T03:41:43.423Z,10.60
2023-04-05T03:42:43.679Z,14.70
2023-04-05T03:43:43.935Z,11.20
2023-04-05T03:44:44.177Z,12.30
2023-04-05T03:45:44.529Z,14.20
2023-04-05T03:46:44.788Z,10.30
2023-04-05T03:47:45.123Z,13.00
2023-04-05T03:48:45.330Z,11.90
2023-04-05T03:49:45.705Z,14.40
2023-04-05T03:50:45.946Z,14.70
2023-04-05T03:51:46.221Z,15.30
2023-04-05T03:52:46.455Z,12.00
2023-04-05T03:53:46.717Z,13.30
2023-04-05T03:54:46.983Z,11.20
2023-04-05T03:55:47.341Z,12.30
2023-04-05T03:56:47.585Z,13.30
2023-04-05T03:57:47.834Z,14.70
2023-04-05T03:58:48.104Z,13.60
2023-04-05T03:59:48.342Z,12.50
2023-04-05T04:00:48.630Z,13.10
2023-04-05T04:01:48.994Z,14.20
2023-04-05T04:02:49.347Z,15.60
2023-04-05T04:03:49.524Z,13.60
2023-04-05T04:04:49.826Z,16.90
2023-04-05T04:05:50.091Z,11.70
2023-04-05T04:06:50.317Z,13.60
2023-04-05T04:07:50.602Z,11.70
2023-04-05T04:08:50.865Z,12.20
2023-04-05T04:09:51.130Z,11.20
2023-04-05T04:10:51.406Z,11.30
2023-04-05T04:11:51.693Z,15.00
2023-04-05T04:12:51.947Z,12.40
2023-04-05T04:13:52.203Z,15.20
2023-04-05T04:14:52.460Z,12.90
2023-04-05T04:15:52.754Z,11.30
2023-04-05T04:16:52.994Z,11.90
2023-04-05T04:17:53.442Z,13.00
2023-04-05T04:18:53.567Z,12.10
2023-04-05T04:19:53.849Z,12.40
2023-04-05T04:20:54.103Z,12.20
2023-04-05T04:21:54.402Z,11.60
2023-04-05T04:22:54.675Z,13.20
2023-04-05T04:23:54.967Z,13.40
2023-04-05T04:24:55.235Z,13.00
2023-04-05T04:25:55.516Z,12.80
2023-04-05T04:27:02.788Z,13.80
2023-04-05T04:27:57.620Z,12.20
2023-04-05T04:28:56.458Z,13.80
2023-04-05T04:29:56.717Z,14.00
2023-04-05T04:30:56.960Z,13.50
2023-04-05T04:31:57.223Z,11.40
2023-04-05T04:32:57.735Z,14.00
2023-04-05T04:33:57.800Z,11.20
2023-04-05T04:34:58.056Z,12.20
2023-04-05T04:35:58.408Z,11.30
2023-04-05T04:36:58.628Z,11.40
2023-04-05T04:37:58.901Z,11.80
2023-04-05T04:38:59.269Z,10.70
2023-04-05T04:39:59.448Z,12.20
2023-04-05T04:40:59.688Z,11.20
2023-04-05T04:42:00.092Z,10.90
2023-04-05T04:43:00.350Z,10.40
2023-04-05T04:44:00.594Z,11.10
2023-04-05T04:45:01.096Z,13.30
2023-04-05T04:46:01.248Z,13.60
2023-04-05T04:47:01.513Z,10.10
2023-04-05T04:48:01.862Z,10.10
2023-04-05T04:49:02.051Z,16.20
2023-04-05T04:50:02.295Z,12.00
2023-04-05T04:51:02.567Z,9.40
2023-04-05T04:52:02.816Z,13.00
2023-04-05T04:53:03.077Z,16.00
2023-04-05T04:54:03.341Z,16.10
2023-04-05T04:55:03.588Z,13.80
2023-04-05T04:56:03.862Z,11.30
2023-04-05T04:57:04.102Z,13.90
2023-04-05T04:58:04.454Z,16.50
2023-04-05T04:59:04.748Z,15.70
2023-04-05T05:00:04.981Z,12.20
2023-04-05T05:01:05.335Z,13.20
2023-04-05T05:02:05.568Z,12.90
2023-04-05T05:03:05.812Z,17.40
2023-04-05T05:04:06.043Z,14.10
2023-04-05T05:05:06.272Z,10.10
2023-04-05T05:06:06.554Z,12.50
2023-04-05T05:07:07.008Z,16.20
2023-04-05T05:08:07.139Z,14.50
2023-04-05T05:09:07.476Z,10.80
2023-04-05T05:10:07.783Z,15.50
2023-04-05T05:11:07.983Z,14.50
2023-04-05T05:12:08.263Z,10.80
2023-04-05T05:13:08.516Z,10.20
2023-04-05T05:14:09.036Z,11.60
2023-04-05T05:15:09.023Z,10.70
2023-04-05T05:16:09.392Z,10.60
2023-04-05T05:17:09.665Z,11.80
2023-04-05T05:18:09.979Z,10.10
2023-04-05T05:19:10.165Z,7.90
2023-04-05T05:20:10.545Z,10.30
2023-04-05T05:21:10.797Z,8.90
2023-04-05T05:22:11.143Z,12.50
2023-04-05T05:23:11.404Z,13.70
2023-04-05T05:24:11.669Z,11.60
2023-04-05T05:25:11.920Z,10.50
2023-04-05T05:26:12.159Z,9.00
2023-04-05T05:27:12.429Z,10.60
2023-04-05T05:28:12.685Z,11.30
2023-04-05T05:29:12.912Z,10.80
2023-04-05T05:30:13.157Z,11.10
2023-04-05T05:31:13.463Z,10.00
2023-04-05T05:32:13.704Z,13.10
2023-04-05T05:33:13.972Z,12.70
2023-04-05T05:34:14.293Z,9.90
2023-04-05T05:35:14.539Z,9.40
2023-04-05T05:36:14.801Z,9.20
2023-04-05T05:37:15.057Z,8.30
2023-04-05T05:38:15.296Z,13.90
2023-04-05T05:39:15.512Z,9.10
2023-04-05T05:40:15.876Z,8.80
2023-04-05T05:41:16.084Z,9.60
2023-04-05T05:42:16.328Z,11.70
2023-04-05T05:43:16.668Z,11.40
2023-04-05T05:44:16.849Z,14.50
2023-04-05T05:45:17.070Z,12.90
2023-04-05T05:46:18.432Z,14.60
2023-04-05T05:47:17.680Z,8.90
2023-04-05T05:48:17.918Z,12.30
2023-04-05T05:49:18.137Z,11.90
2023-04-05T05:50:18.372Z,10.00
2023-04-05T05:51:18.604Z,14.20
2023-04-05T05:52:18.949Z,7.50
2023-04-05T05:53:19.174Z,12.60
2023-04-05T05:54:19.510Z,9.90
2023-04-05T05:55:19.732Z,11.90
2023-04-05T05:56:20.053Z,9.80
2023-04-05T05:57:20.289Z,15.90
2023-04-05T05:58:20.550Z,10.60
2023-04-05T05:59:20.821Z,12.30
2023-04-05T06:00:21.115Z,9.30
2023-04-05T06:01:21.315Z,11.30
2023-04-05T06:02:21.694Z,9.40
2023-04-05T06:03:22.148Z,12.20
2023-04-05T06:04:22.415Z,12.00
2023-04-05T06:05:22.459Z,9.20
2023-04-05T06:06:22.688Z,10.10
2023-04-05T06:07:22.906Z,10.60
2023-04-05T06:08:23.158Z,9.30
2023-04-05T06:09:23.370Z,7.80
2023-04-05T06:10:23.585Z,8.90
2023-04-05T06:11:23.810Z,11.10
2023-04-05T06:12:24.074Z,14.50
2023-04-05T06:13:24.303Z,14.20
2023-04-05T06:14:24.563Z,13.90
2023-04-05T06:15:24.746Z,15.80
2023-04-05T06:16:25.176Z,16.40
2023-04-05T06:17:25.454Z,13.70
2023-04-05T06:18:25.687Z,12.50
2023-04-05T06:19:25.943Z,12.80
2023-04-05T06:20:26.180Z,14.20
2023-04-05T06:21:26.388Z,26.00
2023-04-05T06:22:26.772Z,9.10
2023-04-05T06:23:26.989Z,11.70
2023-04-05T06:24:27.217Z,11.60
2023-04-05T06:25:27.434Z,11.10
2023-04-05T06:26:27.636Z,14.30
2023-04-05T06:27:27.839Z,13.20
2023-04-05T06:28:28.050Z,15.80
2023-04-05T06:29:28.279Z,15.00
2023-04-05T06:30:28.504Z,13.50
2023-04-05T06:31:28.747Z,11.90
2023-04-05T06:32:28.937Z,14.50
2023-04-05T06:33:29.160Z,15.30
2023-04-05T06:34:29.339Z,16.20
2023-04-05T06:35:29.623Z,15.40
2023-04-05T06:36:29.802Z,12.70
2023-04-05T06:37:29.997Z,11.10
2023-04-05T06:38:30.213Z,13.70
2023-04-05T06:39:30.400Z,12.60
2023-04-05T06:40:30.838Z,11.20
2023-04-05T06:41:30.896Z,13.00
2023-04-05T06:42:32.628Z,10.80
2023-04-05T06:43:31.463Z,8.60
2023-04-05T06:44:31.775Z,10.60
2023-04-05T06:45:32.023Z,14.70
2023-04-05T06:46:32.236Z,15.60
2023-04-05T06:47:32.499Z,11.30
2023-04-05T06:48:32.726Z,14.00
2023-04-05T06:49:33.040Z,12.50
2023-04-05T06:50:33.106Z,15.40
2023-04-05T06:51:34.298Z,14.60
2023-04-05T06:52:33.588Z,16.20
2023-04-05T06:53:33.806Z,9.20
2023-04-05T06:54:33.980Z,16.30
2023-04-05T06:55:34.307Z,20.70
2023-04-05T06:56:34.481Z,11.70
2023-04-05T06:57:34.810Z,13.90
2023-04-05T06:58:34.999Z,10.30
2023-04-05T06:59:35.256Z,17.90
2023-04-05T07:00:35.419Z,13.50
2023-04-05T07:01:35.730Z,12.90
2023-04-05T07:02:36.426Z,11.70
2023-04-05T07:03:36.095Z,14.90
2023-04-05T07:04:36.291Z,11.80
2023-04-05T07:05:36.587Z,8.60
2023-04-05T07:06:36.846Z,13.30
2023-04-05T07:07:37.064Z,12.10
2023-04-05T07:08:37.236Z,13.90
2023-04-05T07:09:39.460Z,12.60
2023-04-05T07:10:37.718Z,9.00
2023-04-05T07:11:37.914Z,14.10
2023-04-05T07:12:39.022Z,15.80
2023-04-05T07:13:38.388Z,14.80
2023-04-05T07:14:38.750Z,15.50
2023-04-05T07:15:38.855Z,17.30
2023-04-05T07:16:39.016Z,13.20
2023-04-05T07:17:39.341Z,15.50
2023-04-05T07:18:39.505Z,11.40
2023-04-05T07:19:39.811Z,18.70
2023-04-05T07:20:40.212Z,23.30
2023-04-05T07:21:40.201Z,15.80
2023-04-05T07:22:40.405Z,14.20
2023-04-05T07:23:40.596Z,17.40
2023-04-05T07:24:40.827Z,15.00
2023-04-05T07:25:41.013Z,16.50
2023-04-05T07:26:41.196Z,13.50
2023-04-05T07:27:42.376Z,15.50
2023-04-05T07:28:41.678Z,16.20
2023-04-05T07:29:41.883Z,12.70
2023-04-05T07:30:42.421Z,14.40
2023-04-05T07:31:42.418Z,11.90
2023-04-05T07:32:42.592Z,18.30
2023-04-05T07:33:42.748Z,21.80
2023-04-05T07:34:42.934Z,20.20
2023-04-05T07:35:43.161Z,19.30
2023-04-05T07:36:43.333Z,14.10
2023-04-05T07:37:43.640Z,18.10
2023-04-05T07:38:43.818Z,18.50
2023-04-05T07:39:44.009Z,13.80
2023-04-05T07:40:44.198Z,14.30
2023-04-05T07:41:44.376Z,12.90
2023-04-05T07:42:44.577Z,23.90
2023-04-05T07:43:44.754Z,22.70
2023-04-05T07:44:44.920Z,17.20
2023-04-05T07:45:45.257Z,18.70
2023-04-05T07:46:48.348Z,14.90
2023-04-05T07:47:45.681Z,15.70
2023-04-05T07:48:45.827Z,17.00
2023-04-05T07:49:46.006Z,14.90
2023-04-05T07:50:46.187Z,15.80
2023-04-05T07:51:46.421Z,16.70
2023-04-05T07:52:46.582Z,15.80
2023-04-05T07:53:46.746Z,14.80
2023-04-05T07:54:46.919Z,16.30
2023-04-05T07:55:47.079Z,13.50
2023-04-05T07:56:47.231Z,12.00
2023-04-05T07:57:47.549Z,16.50
2023-04-05T07:58:47.740Z,15.70
2023-04-05T07:59:47.899Z,14.30
2023-04-05T08:00:48.060Z,14.20
2023-04-05T08:01:48.210Z,15.50
2023-04-05T08:02:48.401Z,18.30
2023-04-05T08:03:48.585Z,12.90
2023-04-05T08:04:48.682Z,15.00
2023-04-05T08:05:48.931Z,16.50
2023-04-05T08:06:49.090Z,25.10
2023-04-05T08:07:49.236Z,22.70
2023-04-05T08:08:49.352Z,15.40
2023-04-05T08:09:49.602Z,17.50
2023-04-05T08:10:49.723Z,17.20
2023-04-05T08:11:49.855Z,16.10
2023-04-05T08:12:49.979Z,16.60
2023-04-05T08:13:50.093Z,16.90
2023-04-05T08:14:50.205Z,16.50
2023-04-05T08:15:50.326Z,18.50
2023-04-05T08:16:50.437Z,23.70
2023-04-05T08:17:50.602Z,33.50
2023-04-05T08:18:50.677Z,28.70
2023-04-05T08:19:50.783Z,33.90
2023-04-05T08:20:50.878Z,32.20
2023-04-05T08:21:51.108Z,21.10
2023-04-05T08:22:51.211Z,21.20
2023-04-05T08:23:51.300Z,19.40
2023-04-05T08:24:51.436Z,18.50
2023-04-05T08:25:51.596Z,23.20
2023-04-05T08:26:51.694Z,17.30
2023-04-05T08:27:51.783Z,16.30
2023-04-05T08:28:51.877Z,16.60
2023-04-05T08:29:51.993Z,19.80
2023-04-05T08:30:52.075Z,18.60
2023-04-05T08:31:52.177Z,15.50
2023-04-05T08:32:52.306Z,19.20
2023-04-05T08:33:52.362Z,15.40
2023-04-05T08:34:52.463Z,15.10
2023-04-05T08:35:52.623Z,16.30
2023-04-05T08:36:52.731Z,19.30
2023-04-05T08:37:52.809Z,16.40
2023-04-05T08:38:52.897Z,16.60
2023-04-05T08:39:52.995Z,18.20
2023-04-05T08:40:53.102Z,13.30
2023-04-05T08:41:53.190Z,16.40
2023-04-05T08:42:53.303Z,20.20
2023-04-05T08:43:53.412Z,15.30
2023-04-05T08:44:53.534Z,17.70
2023-04-05T08:45:53.680Z,16.80
2023-04-05T08:46:53.746Z,27.40
2023-04-05T08:47:53.865Z,29.70
2023-04-05T08:48:53.922Z,20.20
2023-04-05T08:49:54.020Z,20.00
2023-04-05T08:50:54.105Z,17.10
2023-04-05T08:51:54.178Z,20.10
2023-04-05T08:52:54.554Z,13.90
2023-04-05T08:53:54.412Z,15.10
2023-04-05T08:54:54.535Z,24.40
2023-04-05T08:55:54.608Z,17.10
2023-04-05T08:56:54.689Z,15.70
2023-04-05T08:57:54.759Z,17.30
2023-04-05T08:58:54.872Z,14.60
2023-04-05T08:59:54.913Z,17.90
2023-04-05T09:00:55.077Z,12.30
2023-04-05T09:01:55.135Z,12.20
2023-04-05T09:02:55.326Z,14.20
2023-04-05T09:03:55.287Z,12.00
2023-04-05T09:04:55.367Z,21.00
2023-04-05T09:05:55.436Z,20.20
2023-04-05T09:06:55.500Z,18.10
2023-04-05T09:07:55.582Z,23.00
2023-04-05T09:08:55.650Z,21.50
2023-04-05T09:09:55.785Z,12.10
2023-04-05T09:10:55.846Z,15.60
2023-04-05T09:11:55.937Z,27.00
2023-04-05T09:12:55.992Z,18.80
2023-04-05T09:13:56.069Z,16.50
2023-04-05T09:14:56.126Z,20.40
2023-04-05T09:15:56.197Z,16.20
2023-04-05T09:16:56.281Z,15.70
2023-04-05T09:17:56.360Z,20.30
2023-04-05T09:18:56.400Z,13.50
2023-04-05T09:19:56.444Z,18.30
2023-04-05T09:20:56.491Z,15.80
2023-04-05T09:21:56.547Z,15.30
2023-04-05T09:22:56.581Z,15.40
2023-04-05T09:23:56.686Z,15.90
2023-04-05T09:24:56.716Z,15.50
2023-04-05T09:25:56.760Z,18.20
2023-04-05T09:26:56.811Z,15.90
2023-04-05T09:27:56.887Z,14.90
2023-04-05T09:28:56.973Z,18.00
2023-04-05T09:29:57.018Z,16.30
2023-04-05T09:30:57.055Z,12.60
2023-04-05T09:31:57.103Z,13.50
2023-04-05T09:32:57.255Z,17.40
2023-04-05T09:33:57.333Z,12.70
2023-04-05T09:34:57.413Z,13.80
2023-04-05T09:35:57.633Z,11.30
2023-04-05T09:36:57.728Z,15.50
2023-04-05T09:37:57.692Z,14.10
2023-04-05T09:38:57.761Z,17.20
2023-04-05T09:39:57.843Z,13.10
2023-04-05T09:40:57.903Z,11.30
2023-04-05T09:41:57.972Z,18.10
2023-04-05T09:42:58.059Z,15.70
2023-04-05T09:43:58.133Z,17.30
2023-04-05T09:44:58.257Z,14.40
2023-04-05T09:45:58.382Z,27.40
2023-04-05T09:46:58.399Z,41.10
2023-04-05T09:47:58.582Z,24.80
2023-04-05T09:48:58.531Z,21.80
2023-04-05T09:49:58.610Z,13.20
2023-04-05T09:51:03.724Z,13.40
2023-04-05T09:51:59.705Z,20.90
2023-04-05T09:52:58.875Z,15.10
2023-04-05T09:53:58.808Z,19.30
2023-04-05T09:54:58.846Z,12.50
2023-04-05T09:55:58.922Z,13.50
2023-04-05T09:56:59.010Z,10.20
2023-04-05T09:57:59.060Z,9.00
2023-04-05T09:58:59.150Z,10.60
2023-04-05T09:59:59.197Z,10.90
2023-04-05T10:01:06.704Z,9.50
2023-04-05T10:02:00.389Z,13.20
2023-04-05T10:02:59.460Z,12.20
2023-04-05T10:03:59.641Z,8.40
2023-04-05T10:04:59.635Z,10.20
2023-04-05T10:05:59.741Z,10.50
2023-04-05T10:06:59.855Z,8.90
2023-04-05T10:07:59.915Z,9.90
2023-04-05T10:08:59.998Z,10.30
2023-04-05T10:10:00.100Z,12.10
2023-04-05T10:11:00.142Z,8.50
2023-04-05T10:12:00.211Z,8.60
2023-04-05T10:13:00.287Z,10.90
2023-04-05T10:14:00.385Z,10.50
2023-04-05T10:15:00.495Z,11.10
2023-04-05T10:16:00.652Z,11.40
2023-04-05T10:17:00.674Z,11.00
2023-04-05T10:18:00.939Z,13.50
2023-04-05T10:19:00.949Z,10.60
2023-04-05T10:20:01.119Z,8.80
2023-04-05T10:21:01.214Z,8.70
2023-04-05T10:22:01.459Z,9.60
2023-04-05T10:23:01.539Z,19.60
2023-04-05T10:24:01.659Z,10.70
2023-04-05T10:25:01.787Z,12.50
2023-04-05T10:26:01.889Z,11.30
2023-04-05T10:27:02.013Z,10.30
2023-04-05T10:28:09.192Z,12.00
2023-04-05T10:29:02.306Z,11.40
2023-04-05T10:30:04.147Z,10.90
2023-04-05T10:31:02.581Z,12.40
2023-04-05T10:32:02.837Z,12.60
2023-04-05T10:33:03.111Z,8.80
2023-04-05T10:34:03.146Z,14.30
2023-04-05T10:35:03.248Z,9.60
2023-04-05T10:36:03.424Z,10.20
2023-04-05T10:37:03.584Z,9.40
2023-04-05T10:38:03.787Z,7.40
2023-04-05T10:39:03.897Z,10.00
2023-04-05T10:40:04.057Z,9.80
2023-04-05T10:41:04.157Z,11.00
2023-04-05T10:42:04.351Z,9.10
2023-04-05T10:43:04.526Z,12.80
2023-04-05T10:44:14.911Z,13.60
2023-04-05T10:45:05.886Z,10.10
2023-04-05T10:46:05.331Z,12.60
2023-04-05T10:47:05.260Z,10.10
2023-04-05T10:48:05.543Z,10.90
2023-04-05T10:49:05.668Z,12.40
2023-04-05T10:50:05.822Z,12.40
2023-04-05T10:51:05.967Z,11.30
2023-04-05T10:52:06.479Z,9.00
2023-04-05T10:53:06.516Z,12.60
2023-04-05T10:54:06.527Z,14.20
2023-04-05T10:55:06.648Z,7.60
2023-04-05T10:56:06.850Z,13.00
2023-04-05T10:57:09.068Z,11.10
2023-04-05T10:58:07.211Z,13.50
2023-04-05T10:59:07.351Z,9.40
2023-04-05T11:00:07.577Z,11.50
2023-04-05T11:01:07.870Z,8.30
2023-04-05T11:02:07.918Z,9.00
2023-04-05T11:03:08.255Z,12.50
2023-04-05T11:04:09.302Z,10.40
2023-04-05T11:05:08.505Z,9.20
2023-04-05T11:06:08.604Z,8.80
2023-04-05T11:07:08.757Z,11.60
2023-04-05T11:08:08.914Z,13.00
2023-04-05T11:09:09.081Z,10.80
2023-04-05T11:10:09.208Z,11.70
2023-04-05T11:11:09.487Z,19.50
2023-04-05T11:12:09.654Z,9.90
2023-04-05T11:13:09.821Z,12.20
2023-04-05T11:14:10.655Z,15.50
2023-04-05T11:15:10.377Z,20.90
2023-04-05T11:16:10.402Z,17.60
2023-04-05T11:17:10.688Z,13.40
2023-04-05T11:18:10.865Z,10.40
2023-04-05T11:19:11.066Z,11.90
2023-04-05T11:20:11.206Z,12.10
2023-04-05T11:21:11.512Z,13.60
2023-04-05T11:22:11.677Z,11.70
2023-04-05T11:23:11.842Z,12.60
2023-04-05T11:24:12.022Z,9.00
2023-04-05T11:25:12.174Z,11.10
2023-04-05T11:26:12.407Z,7.40
2023-04-05T11:27:12.567Z,16.90
2023-04-05T11:28:12.850Z,14.80
2023-04-05T11:29:12.921Z,10.20
2023-04-05T11:30:13.111Z,10.20
2023-04-05T11:31:13.442Z,10.70
2023-04-05T11:32:13.696Z,9.90
2023-04-05T11:33:13.775Z,12.20
2023-04-05T11:34:14.000Z,11.50
2023-04-05T11:35:14.093Z,9.20
2023-04-05T11:36:14.324Z,10.10
2023-04-05T11:37:14.561Z,9.50
2023-04-05T11:38:15.351Z,11.00
2023-04-05T11:39:14.985Z,11.90
2023-04-05T11:40:15.242Z,10.40
2023-04-05T11:41:15.408Z,12.50
2023-04-05T11:42:15.618Z,10.30
2023-04-05T11:43:15.847Z,7.80
2023-04-05T11:44:16.066Z,10.80
2023-04-05T11:45:16.267Z,8.40
2023-04-05T11:46:16.527Z,11.60
2023-04-05T11:47:16.778Z,13.40
2023-04-05T11:48:16.990Z,12.10
2023-04-05T11:49:17.212Z,8.60
2023-04-05T11:50:17.672Z,12.50
2023-04-05T11:51:17.636Z,9.60
2023-04-05T11:52:17.900Z,8.40
2023-04-05T11:53:18.050Z,8.40
2023-04-05T11:54:18.278Z,7.30
2023-04-05T11:55:18.440Z,9.60
2023-04-05T11:56:18.588Z,7.30
2023-04-05T11:57:18.879Z,9.30
2023-04-05T11:58:19.069Z,9.30
2023-04-05T11:59:19.248Z,7.00
2023-04-05T12:00:19.388Z,9.50
2023-04-05T12:01:22.120Z,10.70
2023-04-05T12:02:19.922Z,9.30
2023-04-05T12:03:20.244Z,10.20
2023-04-05T12:04:20.281Z,8.00
2023-04-05T12:05:20.947Z,8.10
2023-04-05T12:06:20.635Z,13.70
2023-04-05T12:07:20.907Z,12.90
2023-04-05T12:08:21.021Z,7.60
2023-04-05T12:09:21.205Z,8.20
2023-04-05T12:10:21.407Z,11.40
2023-04-05T12:11:21.733Z,10.20
2023-04-05T12:12:21.872Z,12.20
2023-04-05T12:13:22.156Z,7.90
2023-04-05T12:14:22.207Z,11.30
2023-04-05T12:15:22.482Z,10.80
2023-04-05T12:16:22.830Z,10.00
2023-04-05T12:17:22.916Z,10.30
2023-04-05T12:18:23.138Z,10.00
2023-04-05T12:19:23.315Z,9.10
2023-04-05T12:20:23.517Z,10.80
2023-04-05T12:21:23.712Z,10.10
2023-04-05T12:22:23.920Z,13.10
2023-04-05T12:23:24.101Z,14.00
2023-04-05T12:24:24.296Z,10.20
2023-04-05T12:25:24.490Z,9.80
2023-04-05T12:26:24.686Z,9.80
2023-04-05T12:27:24.872Z,11.10
2023-04-05T12:28:25.056Z,15.80
2023-04-05T12:29:25.243Z,18.00
2023-04-05T12:30:25.487Z,13.90
2023-04-05T12:31:25.607Z,9.50
2023-04-05T12:32:25.792Z,11.70
2023-04-05T12:33:25.996Z,11.60
2023-04-05T12:34:26.174Z,11.50
2023-04-05T12:35:26.406Z,12.00
2023-04-05T12:36:26.609Z,11.60
2023-04-05T12:37:26.834Z,8.70
2023-04-05T12:38:27.024Z,11.80
2023-04-05T12:39:27.298Z,12.30
2023-04-05T12:40:27.482Z,10.20
2023-04-05T12:41:27.804Z,10.50
2023-04-05T12:42:27.878Z,12.90
2023-04-05T12:43:28.420Z,8.80
2023-04-05T12:44:28.380Z,10.20
2023-04-05T12:45:28.617Z,9.50
2023-04-05T12:46:29.059Z,11.70
2023-04-05T12:47:29.259Z,9.60
2023-04-05T12:48:29.290Z,11.90
2023-04-05T12:49:29.480Z,9.80
2023-04-05T12:50:29.695Z,11.10
2023-04-05T12:51:29.883Z,9.50
2023-04-05T12:52:30.059Z,9.00
2023-04-05T12:53:30.263Z,15.20
2023-04-05T12:54:30.849Z,11.00
2023-04-05T12:55:30.696Z,22.80
2023-04-05T12:56:30.888Z,22.40
2023-04-05T12:57:31.129Z,12.40
2023-04-05T12:58:31.323Z,16.70
2023-04-05T12:59:31.707Z,16.90
2023-04-05T13:00:31.730Z,12.20
2023-04-05T13:01:31.958Z,13.10
2023-04-05T13:02:32.191Z,8.70